Time;durP1;ratioP1;P1;durP2;ratioP2;P2;SDS_P1;SDS_P2;PMS_P1;PMS_P2;Temp;Humidity;BMP_temperature;BMP_pressure;BME280_temperature;BME280_humidity;BME280_pressure;Samples;Min_cycle;Max_cycle;Signal;HPM_P1;HPM_P2
2022/11/19 00:01:59;;;;;;;5.17;3.50;;;5.40;99.90;;;;;;5058268;28;20527;-51
2022/11/19 00:04:26;;;;;;;3.70;2.70;;;5.10;99.90;;;;;;5072964;28;20533;-52
2022/11/19 00:06:53;;;;;;;6.07;3.47;;;5.00;99.90;;;;;;5060469;28;20460;-51
2022/11/19 00:09:20;;;;;;;4.73;3.10;;;5.10;99.90;;;;;;5069083;28;20452;-51
2022/11/19 00:14:33;;;;;;;2.50;1.97;;;5.30;99.90;;;;;;5063254;28;20422;-51
2022/11/19 00:17:00;;;;;;;2.77;2.57;;;5.10;99.90;;;;;;5052796;28;20991;-51
2022/11/19 00:19:27;;;;;;;2.87;2.60;;;5.00;99.90;;;;;;5052989;28;20471;-51
2022/11/19 00:21:54;;;;;;;5.03;3.43;;;4.90;99.90;;;;;;5052971;28;20440;-51
2022/11/19 00:24:21;;;;;;;6.10;3.20;;;4.60;99.90;;;;;;5065425;28;20526;-51
2022/11/19 00:26:48;;;;;;;13.73;5.77;;;4.30;99.90;;;;;;5072249;28;20475;-51
2022/11/19 00:29:15;;;;;;;8.50;6.17;;;4.30;99.90;;;;;;5073081;28;20445;-51
2022/11/19 00:31:43;;;;;;;18.13;8.23;;;4.50;99.90;;;;;;5072303;28;20439;-51
2022/11/19 00:34:11;;;;;;;7.10;5.03;;;4.70;99.90;;;;;;5072282;28;20929;-51
2022/11/19 00:36:37;;;;;;;5.40;4.37;;;4.90;99.90;;;;;;5072198;28;20468;-53
2022/11/19 00:39:05;;;;;;;4.93;3.73;;;5.00;99.90;;;;;;5071877;28;20443;-51
2022/11/19 00:41:31;;;;;;;5.00;3.07;;;5.00;99.90;;;;;;5072188;28;20890;-51
2022/11/19 00:43:58;;;;;;;7.10;4.23;;;4.60;99.90;;;;;;5071953;28;20446;-52
2022/11/19 00:46:27;;;;;;;3.77;3.47;;;4.40;99.90;;;;;;5072547;28;20472;-51
2022/11/19 00:48:57;;;;;;;6.57;4.20;;;4.50;99.90;;;;;;5072560;28;20447;-51
2022/11/19 00:51:26;;;;;;;4.30;3.67;;;4.70;99.90;;;;;;5072178;28;20493;-51
2022/11/19 00:53:53;;;;;;;3.80;2.87;;;4.80;99.90;;;;;;5071825;28;20574;-53
2022/11/19 00:56:22;;;;;;;3.90;3.07;;;4.80;99.90;;;;;;5071825;28;20467;-51
2022/11/19 00:58:49;;;;;;;3.03;2.57;;;4.80;99.90;;;;;;5072596;28;20534;-51
2022/11/19 01:01:17;;;;;;;2.93;2.00;;;4.90;99.90;;;;;;5072087;28;20450;-51
2022/11/19 01:03:45;;;;;;;2.40;1.97;;;5.00;99.90;;;;;;5071538;28;20450;-51
2022/11/19 01:06:14;;;;;;;3.77;3.23;;;5.00;99.90;;;;;;5072213;28;20478;-52
2022/11/19 01:08:41;;;;;;;6.27;4.97;;;4.80;99.90;;;;;;5072264;28;20542;-51
2022/11/19 01:11:10;;;;;;;7.10;5.10;;;4.70;99.90;;;;;;5071696;28;20535;-52
2022/11/19 01:13:37;;;;;;;4.90;4.47;;;4.80;99.90;;;;;;5071137;28;20536;-51
2022/11/19 01:16:07;;;;;;;6.27;5.40;;;4.90;99.90;;;;;;5071659;28;20464;-51
2022/11/19 01:18:34;;;;;;;5.70;4.23;;;4.70;99.90;;;;;;5071871;28;20450;-51
2022/11/19 01:21:03;;;;;;;5.80;4.10;;;4.30;99.90;;;;;;5071640;28;20453;-51
2022/11/19 01:23:32;;;;;;;4.17;3.67;;;4.20;99.90;;;;;;5071484;28;20526;-51
2022/11/19 01:25:59;;;;;;;4.13;3.47;;;4.30;99.90;;;;;;5071286;28;20479;-53
2022/11/19 01:28:26;;;;;;;3.30;3.00;;;4.60;99.90;;;;;;5071563;28;20819;-51
2022/11/19 01:30:52;;;;;;;5.00;3.70;;;4.70;99.90;;;;;;5071959;28;20891;-51
2022/11/19 01:33:21;;;;;;;3.77;3.33;;;4.80;99.90;;;;;;5071364;28;20481;-51
2022/11/19 01:35:55;;;;;;;4.20;2.60;;;4.90;99.90;;;;;;5071001;28;20459;-51
2022/11/19 01:38:22;;;;;;;3.47;2.23;;;4.90;99.90;;;;;;5071178;28;20450;-51
2022/11/19 01:40:51;;;;;;;2.77;2.30;;;4.70;99.90;;;;;;5071616;28;20445;-51
2022/11/19 01:43:18;;;;;;;3.43;2.77;;;4.80;99.90;;;;;;5071016;28;21003;-51
2022/11/19 01:45:48;;;;;;;6.00;2.53;;;4.70;99.90;;;;;;5071572;28;20440;-51
2022/11/19 01:48:20;;;;;;;3.70;2.77;;;4.30;99.90;;;;;;5071428;28;20435;-51
2022/11/19 01:50:50;;;;;;;4.17;2.93;;;4.20;99.90;;;;;;5071409;28;20460;-51
2022/11/19 01:53:20;;;;;;;3.47;3.00;;;3.60;99.90;;;;;;5070670;28;20478;-51
2022/11/19 01:55:48;;;;;;;4.07;3.67;;;3.70;99.90;;;;;;5071248;28;20607;-51
2022/11/19 01:58:20;;;;;;;4.60;3.90;;;4.10;99.90;;;;;;5071199;28;20439;-51
2022/11/19 02:00:48;;;;;;;3.40;3.10;;;4.30;99.90;;;;;;5071099;28;20533;-51
2022/11/19 02:03:16;;;;;;;4.30;3.50;;;4.50;99.90;;;;;;5070437;28;20815;-51
2022/11/19 02:05:43;;;;;;;4.43;3.47;;;4.50;99.90;;;;;;5071289;28;20448;-51
2022/11/19 02:08:40;;;;;;;4.57;3.40;;;4.50;99.90;;;;;;5073359;28;20529;-51
2022/11/19 02:11:35;;;;;;;3.93;3.53;;;4.50;99.90;;;;;;5075261;28;20451;-51
2022/11/19 02:14:17;;;;;;;6.10;3.73;;;4.50;99.90;;;;;;5075299;28;20462;-53
2022/11/19 02:16:55;;;;;;;4.63;4.23;;;4.40;99.90;;;;;;5075243;28;20561;-52
2022/11/19 02:19:44;;;;;;;4.60;3.83;;;4.30;99.90;;;;;;5075134;28;20537;-51
2022/11/19 02:22:28;;;;;;;5.37;4.57;;;3.80;99.90;;;;;;5075108;28;20437;-51
2022/11/19 02:25:01;;;;;;;5.83;5.23;;;3.50;99.90;;;;;;5074803;28;20447;-52
2022/11/19 02:27:56;;;;;;;4.70;3.90;;;3.70;99.90;;;;;;5102377;22;20591;-46
2022/11/19 02:30:24;;;;;;;7.47;5.93;;;4.00;99.90;;;;;;5095162;28;20429;-46
2022/11/19 02:32:58;;;;;;;5.70;4.73;;;4.30;99.90;;;;;;5094858;28;20473;-46
2022/11/19 02:35:38;;;;;;;5.17;4.77;;;4.40;99.90;;;;;;5095201;28;20470;-47
2022/11/19 02:38:11;;;;;;;4.93;4.23;;;4.20;99.90;;;;;;5094440;28;20591;-46
2022/11/19 02:40:41;;;;;;;4.70;4.07;;;4.10;99.90;;;;;;5095206;28;20442;-46
2022/11/19 02:43:13;;;;;;;4.67;3.80;;;4.30;99.90;;;;;;5094824;28;20438;-46
2022/11/19 02:45:44;;;;;;;4.57;4.10;;;4.40;99.90;;;;;;5094993;28;20933;-46
2022/11/19 02:48:16;;;;;;;3.13;2.73;;;4.30;99.90;;;;;;5094816;28;20489;-46
2022/11/19 02:50:46;;;;;;;4.10;3.70;;;4.20;99.90;;;;;;5094748;28;20529;-46
2022/11/19 02:53:12;;;;;;;3.47;3.13;;;4.30;99.90;;;;;;5094449;28;20478;-45
2022/11/19 02:55:40;;;;;;;4.97;4.27;;;4.30;99.90;;;;;;5094808;28;20464;-46
2022/11/19 03:04:28;;;;;;;7.90;4.57;;;4.20;99.90;;;;;;5094658;28;20461;-47
2022/11/19 03:06:31;;;;;;;4.50;3.77;;;4.40;99.90;;;;;;5094436;28;20524;-46
2022/11/19 03:08:58;;;;;;;5.00;4.20;;;4.50;99.90;;;;;;5094457;28;20446;-46
2022/11/19 03:11:27;;;;;;;5.67;3.03;;;4.60;99.90;;;;;;5094549;28;20533;-50
2022/11/19 03:17:07;;;;;;;3.97;3.13;;;4.50;99.90;;;;;;5051336;28;20443;-46
2022/11/19 03:19:37;;;;;;;2.43;2.23;;;4.60;99.90;;;;;;5051204;28;20521;-48
2022/11/19 03:22:10;;;;;;;2.57;2.07;;;4.60;99.90;;;;;;5073401;28;20449;-47
2022/11/19 03:24:40;;;;;;;5.63;3.53;;;4.70;99.90;;;;;;5094031;28;20445;-46
2022/11/19 03:27:13;;;;;;;4.60;4.17;;;4.60;99.90;;;;;;5094048;28;20474;-46
2022/11/19 03:29:49;;;;;;;4.30;3.90;;;4.40;99.90;;;;;;5093877;28;20821;-46
2022/11/19 03:32:22;;;;;;;5.07;4.30;;;4.20;99.90;;;;;;5093936;28;20520;-46
2022/11/19 03:34:54;;;;;;;8.60;4.80;;;3.90;99.90;;;;;;5093410;28;20600;-48
2022/11/19 03:37:23;;;;;;;3.70;3.40;;;3.90;99.90;;;;;;5094200;28;20555;-46
2022/11/19 03:39:52;;;;;;;4.57;3.50;;;4.10;99.90;;;;;;5093579;28;20531;-47
2022/11/19 03:42:21;;;;;;;4.13;3.70;;;4.10;99.90;;;;;;5093785;28;20473;-45
2022/11/19 03:44:51;;;;;;;3.43;2.73;;;4.30;99.90;;;;;;5093524;28;20449;-45
2022/11/19 03:47:24;;;;;;;2.93;2.73;;;4.10;99.90;;;;;;5093583;28;20471;-46
2022/11/19 03:49:57;;;;;;;5.13;2.90;;;3.60;99.90;;;;;;5093837;28;20528;-47
2022/11/19 03:52:24;;;;;;;3.27;2.77;;;3.60;99.90;;;;;;5093608;28;20440;-46
2022/11/19 03:54:51;;;;;;;2.53;1.80;;;3.50;99.90;;;;;;5093567;28;20487;-46
2022/11/19 03:57:20;;;;;;;3.03;2.40;;;3.50;99.90;;;;;;5093648;28;20562;-49
2022/11/19 03:59:47;;;;;;;3.00;2.37;;;3.60;99.90;;;;;;5093865;28;20475;-46
2022/11/19 04:02:14;;;;;;;25.73;14.40;;;3.90;99.90;;;;;;5093416;28;20444;-47
2022/11/19 04:04:43;;;;;;;10.87;7.43;;;4.00;99.90;;;;;;5093430;28;20433;-45
2022/11/19 04:07:11;;;;;;;5.77;5.10;;;4.00;99.90;;;;;;5093292;28;20474;-47
2022/11/19 04:09:39;;;;;;;5.37;4.47;;;3.90;99.90;;;;;;5093179;28;20489;-46
2022/11/19 04:12:08;;;;;;;7.20;4.40;;;3.90;99.90;;;;;;5093228;28;20524;-46
2022/11/19 04:14:35;;;;;;;4.30;3.90;;;3.30;99.90;;;;;;5093256;28;20563;-46
2022/11/19 04:17:01;;;;;;;4.77;4.37;;;3.20;99.90;;;;;;5093114;28;20461;-46
2022/11/19 04:19:28;;;;;;;4.90;4.40;;;3.10;99.90;;;;;;5092766;28;20455;-45
2022/11/19 04:21:56;;;;;;;4.60;3.83;;;3.50;99.90;;;;;;5092996;28;20960;-46
2022/11/19 04:24:23;;;;;;;4.33;3.90;;;3.70;99.90;;;;;;5092392;28;20523;-46
2022/11/19 04:26:50;;;;;;;5.63;3.27;;;3.50;99.90;;;;;;5092796;28;20480;-46
2022/11/19 04:29:17;;;;;;;3.23;2.93;;;3.70;99.90;;;;;;5093064;28;20449;-46
2022/11/19 04:31:44;;;;;;;2.73;2.40;;;3.90;99.90;;;;;;5092198;28;20853;-46
2022/11/19 04:34:11;;;;;;;3.00;2.60;;;3.90;99.90;;;;;;5092460;28;20571;-47
2022/11/19 04:36:39;;;;;;;1.90;1.70;;;4.00;99.90;;;;;;5092820;28;20462;-46
2022/11/19 04:39:07;;;;;;;1.87;1.50;;;4.10;99.90;;;;;;5091959;28;20929;-46
2022/11/19 04:41:34;;;;;;;1.90;1.73;;;3.90;99.90;;;;;;5092621;28;20441;-46
2022/11/19 04:44:01;;;;;;;3.00;2.67;;;4.00;99.90;;;;;;5092463;28;20521;-47
2022/11/19 04:46:28;;;;;;;4.80;4.30;;;4.10;99.90;;;;;;5092428;28;21049;-46
2022/11/19 04:48:55;;;;;;;4.37;3.90;;;4.00;99.90;;;;;;5092745;28;20540;-50
2022/11/19 04:51:22;;;;;;;5.43;3.80;;;3.90;99.90;;;;;;5092262;28;20442;-46
2022/11/19 04:53:49;;;;;;;4.17;3.13;;;3.80;99.90;;;;;;5092046;28;20474;-46
2022/11/19 04:56:17;;;;;;;5.20;3.23;;;3.80;99.90;;;;;;5092311;28;20528;-47
2022/11/19 04:58:44;;;;;;;3.20;2.30;;;3.90;99.90;;;;;;5092388;28;20441;-47
2022/11/19 05:01:11;;;;;;;2.80;2.20;;;3.90;99.90;;;;;;5091919;28;20973;-46
2022/11/19 05:03:38;;;;;;;1.30;1.10;;;3.90;99.90;;;;;;5092022;28;20451;-46
2022/11/19 05:06:05;;;;;;;6.07;4.03;;;3.80;99.90;;;;;;5092397;28;20441;-45
2022/11/19 05:08:32;;;;;;;3.70;3.30;;;3.90;99.90;;;;;;5091724;28;20441;-46
2022/11/19 05:10:59;;;;;;;6.13;3.97;;;3.80;99.90;;;;;;5092222;28;20452;-46
2022/11/19 05:13:27;;;;;;;6.80;4.77;;;3.80;99.90;;;;;;5091310;28;20446;-46
2022/11/19 05:15:54;;;;;;;5.30;4.73;;;3.80;99.90;;;;;;5092178;28;20532;-46
2022/11/19 05:18:21;;;;;;;4.60;4.20;;;3.50;99.90;;;;;;5092146;28;20556;-47
2022/11/19 05:20:47;;;;;;;3.73;2.80;;;3.30;99.90;;;;;;5092046;28;20536;-46
2022/11/19 05:23:14;;;;;;;2.57;2.37;;;2.90;99.90;;;;;;5091639;28;20441;-46
2022/11/19 05:25:42;;;;;;;3.03;2.70;;;3.10;99.90;;;;;;5092137;28;20552;-46
2022/11/19 05:28:09;;;;;;;4.20;3.03;;;3.40;99.90;;;;;;5091460;28;20507;-46
2022/11/19 05:30:37;;;;;;;3.57;2.37;;;3.60;99.90;;;;;;5091660;28;20441;-45
2022/11/19 05:33:04;;;;;;;7.10;6.07;;;3.40;99.90;;;;;;5091880;28;20572;-46
2022/11/19 05:35:31;;;;;;;4.80;4.00;;;3.70;99.90;;;;;;5091744;28;20547;-46
2022/11/19 05:37:58;;;;;;;5.27;4.10;;;3.70;99.90;;;;;;5091573;28;20490;-46
2022/11/19 05:40:25;;;;;;;3.00;2.70;;;3.80;99.90;;;;;;5091646;28;20990;-46
2022/11/19 05:42:52;;;;;;;2.87;2.37;;;3.90;99.90;;;;;;5091194;28;20997;-43
2022/11/19 05:45:19;;;;;;;3.60;2.60;;;3.90;99.90;;;;;;5091606;28;20437;-49
2022/11/19 05:47:47;;;;;;;4.60;4.13;;;3.80;99.90;;;;;;5091573;28;20848;-46
2022/11/19 05:50:14;;;;;;;6.50;4.97;;;3.80;99.90;;;;;;5091650;28;20438;-46
2022/11/19 05:52:41;;;;;;;4.93;4.10;;;3.60;99.90;;;;;;5091129;28;20527;-46
2022/11/19 05:55:08;;;;;;;4.57;4.17;;;3.70;99.90;;;;;;5091232;28;21016;-47
2022/11/19 05:57:35;;;;;;;5.47;4.27;;;3.50;99.90;;;;;;5091746;28;20463;-46
2022/11/19 06:00:03;;;;;;;3.10;2.80;;;3.60;99.90;;;;;;5091194;28;20535;-46
2022/11/19 06:02:29;;;;;;;8.70;5.03;;;3.50;99.90;;;;;;5090779;28;20529;-46
2022/11/19 06:04:58;;;;;;;5.50;4.00;;;3.50;99.90;;;;;;5091435;28;20431;-46
2022/11/19 06:07:24;;;;;;;4.53;3.30;;;3.20;99.90;;;;;;5091279;28;20562;-46
2022/11/19 06:09:51;;;;;;;3.43;1.87;;;2.90;99.90;;;;;;5091318;28;20442;-47
2022/11/19 06:12:18;;;;;;;2.53;2.00;;;2.90;99.90;;;;;;5091477;28;20477;-46
2022/11/19 06:14:45;;;;;;;3.20;2.50;;;3.20;99.90;;;;;;5090854;28;20988;-47
2022/11/19 06:17:12;;;;;;;2.40;2.20;;;3.40;99.90;;;;;;5091216;28;20460;-46
2022/11/19 06:19:39;;;;;;;2.03;1.67;;;3.60;99.90;;;;;;5091230;28;20446;-46
2022/11/19 06:22:07;;;;;;;1.77;1.63;;;3.70;99.90;;;;;;5090940;28;20456;-46
2022/11/19 06:24:34;;;;;;;2.00;1.40;;;3.80;99.90;;;;;;5091269;28;20532;-48
2022/11/19 06:27:01;;;;;;;2.83;1.80;;;3.90;99.90;;;;;;5090574;28;20479;-46
2022/11/19 06:29:28;;;;;;;3.10;2.10;;;4.00;99.90;;;;;;5090347;28;20544;-46
2022/11/19 06:31:55;;;;;;;2.93;2.00;;;4.00;99.90;;;;;;5090264;28;20448;-45
2022/11/19 06:34:21;;;;;;;2.53;2.30;;;4.00;99.90;;;;;;5089733;28;20478;-46
2022/11/19 06:36:48;;;;;;;1.93;1.80;;;4.10;99.90;;;;;;5089749;28;20901;-46
2022/11/19 06:39:16;;;;;;;3.87;3.47;;;4.20;99.90;;;;;;5090143;28;20442;-46
2022/11/19 06:41:43;;;;;;;2.13;1.93;;;3.90;99.90;;;;;;5090084;28;20531;-46
2022/11/19 06:44:10;;;;;;;3.23;2.17;;;3.70;99.90;;;;;;5089705;28;20474;-46
2022/11/19 06:46:38;;;;;;;2.80;2.13;;;3.80;99.90;;;;;;5090062;28;20840;-46
2022/11/19 06:49:05;;;;;;;2.33;1.30;;;3.90;99.90;;;;;;5089949;28;20454;-49
2022/11/19 06:51:33;;;;;;;4.83;3.30;;;3.90;99.90;;;;;;5090023;28;20445;-46
2022/11/19 06:53:59;;;;;;;2.80;2.50;;;3.80;99.90;;;;;;5091503;28;20531;-46
2022/11/19 06:56:28;;;;;;;2.30;2.07;;;3.80;99.90;;;;;;5093479;28;20556;-46
2022/11/19 06:58:56;;;;;;;2.03;1.37;;;3.80;99.90;;;;;;5093279;28;20440;-46
2022/11/19 07:01:23;;;;;;;2.17;1.50;;;3.70;99.90;;;;;;5092767;28;20440;-46
2022/11/19 07:03:50;;;;;;;2.93;1.90;;;3.60;99.90;;;;;;5092782;28;20440;-46
2022/11/19 07:06:17;;;;;;;6.50;5.90;;;3.80;99.90;;;;;;5093105;28;20928;-46
2022/11/19 07:08:43;;;;;;;7.73;6.67;;;4.00;99.90;;;;;;5093505;28;20441;-46
2022/11/19 07:11:26;;;;;;;6.17;5.57;;;3.70;99.90;;;;;;5093162;28;20968;-47
2022/11/19 07:13:58;;;;;;;5.27;4.77;;;3.00;99.90;;;;;;5092892;28;20467;-47
2022/11/19 07:16:27;;;;;;;9.43;6.57;;;3.00;99.90;;;;;;5093282;28;20481;-46
2022/11/19 07:18:54;;;;;;;8.47;6.73;;;3.30;99.90;;;;;;5092790;28;20487;-46
2022/11/19 07:21:21;;;;;;;8.43;6.50;;;3.20;99.90;;;;;;5093114;28;20944;-48
2022/11/19 07:23:48;;;;;;;9.50;8.10;;;3.30;99.90;;;;;;5092739;28;20440;-46
2022/11/19 07:26:15;;;;;;;9.73;8.73;;;3.40;99.90;;;;;;5050953;28;1190447;-46
2022/11/19 07:28:41;;;;;;;13.70;8.17;;;3.10;99.90;;;;;;5094015;28;20436;-47
2022/11/19 07:31:10;;;;;;;10.50;8.10;;;3.10;99.90;;;;;;5094114;28;20879;-46
2022/11/19 07:33:38;;;;;;;7.97;7.20;;;3.30;99.90;;;;;;5093659;28;20531;-47
2022/11/19 07:36:06;;;;;;;9.57;7.70;;;3.50;99.90;;;;;;5094069;28;20488;-47
2022/11/19 07:38:33;;;;;;;8.90;7.87;;;3.60;99.90;;;;;;5093350;28;20445;-46
2022/11/19 07:41:00;;;;;;;8.77;7.07;;;3.80;99.90;;;;;;5093716;28;20815;-47
2022/11/19 07:43:26;;;;;;;6.33;5.70;;;4.00;99.90;;;;;;5093653;28;20884;-46
2022/11/19 07:45:53;;;;;;;8.47;5.90;;;4.10;99.90;;;;;;5093577;28;20442;-46
2022/11/19 07:48:21;;;;;;;9.37;6.20;;;4.30;99.90;;;;;;5093209;28;20573;-47
2022/11/19 07:50:51;;;;;;;12.50;10.50;;;4.30;99.90;;;;;;5093643;28;20994;-46
2022/11/19 07:53:19;;;;;;;12.30;10.23;;;4.30;99.90;;;;;;5091917;28;20892;-46
2022/11/19 07:55:46;;;;;;;10.40;9.17;;;4.30;99.90;;;;;;5082589;28;20563;-46
2022/11/19 07:58:14;;;;;;;8.93;8.13;;;4.30;99.90;;;;;;5093400;28;20462;-44
2022/11/19 08:00:41;;;;;;;10.47;9.47;;;4.30;99.90;;;;;;5093045;28;20453;-46
2022/11/19 08:03:10;;;;;;;12.63;11.33;;;4.30;99.90;;;;;;5092824;28;20443;-47
2022/11/19 08:05:40;;;;;;;9.90;8.90;;;4.30;99.90;;;;;;5092531;28;20468;-48
2022/11/19 08:08:07;;;;;;;8.77;7.90;;;4.40;99.90;;;;;;5093748;28;20456;-46
2022/11/19 08:10:35;;;;;;;8.53;7.03;;;4.50;99.90;;;;;;5093407;28;21032;-47
2022/11/19 08:13:05;;;;;;;6.70;5.97;;;4.60;99.90;;;;;;5092207;28;20526;-46
2022/11/19 08:15:33;;;;;;;6.30;4.27;;;4.70;99.90;;;;;;5093101;28;20479;-47
2022/11/19 08:18:11;;;;;;;7.20;6.50;;;4.70;99.90;;;;;;5092986;28;20541;-46
2022/11/19 08:20:39;;;;;;;7.50;6.43;;;4.70;99.90;;;;;;5093326;28;20444;-47
2022/11/19 08:23:06;;;;;;;6.80;6.20;;;4.70;99.90;;;;;;5091906;28;20961;-46
2022/11/19 08:25:34;;;;;;;6.23;5.47;;;4.70;99.90;;;;;;5093169;28;20457;-47
2022/11/19 08:28:01;;;;;;;6.90;5.90;;;4.70;99.90;;;;;;5094028;28;20528;-47
2022/11/19 08:30:29;;;;;;;5.50;5.00;;;4.70;99.90;;;;;;5092611;28;20808;-46
2022/11/19 08:32:55;;;;;;;6.63;5.20;;;4.60;99.90;;;;;;5092734;28;20443;-49
2022/11/19 08:35:22;;;;;;;5.60;4.80;;;4.30;99.90;;;;;;5092804;28;20480;-46
2022/11/19 08:37:51;;;;;;;4.53;4.00;;;4.40;99.90;;;;;;5092314;28;21085;-47
2022/11/19 08:40:18;;;;;;;6.07;5.47;;;4.60;99.90;;;;;;5092674;28;20459;-47
2022/11/19 08:42:59;;;;;;;6.90;5.90;;;4.80;99.90;;;;;;5092604;28;20535;-46
2022/11/19 08:45:30;;;;;;;5.70;5.20;;;4.80;99.90;;;;;;5092633;28;20432;-49
2022/11/19 08:47:59;;;;;;;6.63;5.97;;;4.70;99.90;;;;;;5092744;28;20472;-46
2022/11/19 08:50:26;;;;;;;7.40;6.53;;;4.60;99.90;;;;;;5092506;28;20444;-46
2022/11/19 08:52:56;;;;;;;5.77;5.20;;;4.60;99.90;;;;;;5092177;28;20529;-50
2022/11/19 08:55:24;;;;;;;6.40;5.80;;;4.80;99.90;;;;;;5092034;28;20513;-46
2022/11/19 08:57:50;;;;;;;6.33;5.20;;;4.80;99.90;;;;;;5092363;28;20462;-46
2022/11/19 09:00:18;;;;;;;5.40;4.37;;;4.80;99.90;;;;;;5092223;28;20447;-46
2022/11/19 09:02:46;;;;;;;9.60;6.00;;;4.80;99.90;;;;;;5092307;28;20446;-47
2022/11/19 09:05:13;;;;;;;7.37;6.10;;;4.80;99.90;;;;;;5091951;28;20581;-46
2022/11/19 09:07:40;;;;;;;8.70;5.30;;;4.90;99.90;;;;;;5092320;28;20466;-46
2022/11/19 09:10:10;;;;;;;6.97;5.77;;;4.90;99.90;;;;;;5092248;28;20538;-46
2022/11/19 09:12:37;;;;;;;5.60;5.00;;;4.90;99.90;;;;;;5092193;28;20458;-46
2022/11/19 09:15:05;;;;;;;5.73;4.97;;;4.90;99.90;;;;;;5091928;28;20569;-49
2022/11/19 09:17:31;;;;;;;7.33;6.30;;;4.90;99.90;;;;;;5091221;28;21042;-46
2022/11/19 09:19:58;;;;;;;5.97;5.37;;;4.90;99.90;;;;;;5090810;28;20446;-46
2022/11/19 09:22:25;;;;;;;4.10;3.70;;;4.90;99.90;;;;;;5090804;28;20443;-45
2022/11/19 09:24:52;;;;;;;4.23;3.30;;;4.90;99.90;;;;;;5090348;28;20446;-46
2022/11/19 09:27:20;;;;;;;2.90;2.40;;;5.00;99.90;;;;;;5091440;28;20790;-48
2022/11/19 09:29:47;;;;;;;4.47;3.73;;;5.00;99.90;;;;;;5090926;28;20538;-46
2022/11/19 09:32:14;;;;;;;2.60;2.40;;;5.00;99.90;;;;;;5091261;28;20443;-46
2022/11/19 09:34:41;;;;;;;2.37;1.80;;;4.90;99.90;;;;;;5091183;28;20470;-46
2022/11/19 09:37:08;;;;;;;2.60;2.23;;;4.90;99.90;;;;;;5092848;28;20468;-47
2022/11/19 09:39:35;;;;;;;3.67;2.63;;;5.20;99.90;;;;;;5094069;28;20632;-47
2022/11/19 09:42:13;;;;;;;1.83;1.53;;;5.40;99.90;;;;;;5094298;28;20855;-49
2022/11/19 09:45:06;;;;;;;2.37;2.13;;;5.60;99.90;;;;;;5094589;28;20939;-47
2022/11/19 09:47:50;;;;;;;2.60;2.40;;;5.80;99.90;;;;;;5097725;28;20492;-47
2022/11/19 09:50:20;;;;;;;3.80;2.30;;;5.70;99.90;;;;;;5093512;28;20477;-46
2022/11/19 09:52:51;;;;;;;2.90;2.20;;;5.70;99.90;;;;;;5093102;28;20436;-45
2022/11/19 09:55:27;;;;;;;3.60;2.00;;;5.80;99.90;;;;;;5093326;28;20483;-47
2022/11/19 09:57:57;;;;;;;3.40;2.20;;;6.00;99.90;;;;;;5094532;28;20459;-49
2022/11/19 10:00:28;;;;;;;3.13;2.83;;;6.10;99.90;;;;;;5093081;28;20538;-46
2022/11/19 10:03:00;;;;;;;2.83;2.53;;;6.20;99.90;;;;;;5092766;28;20952;-50
2022/11/19 10:05:34;;;;;;;4.07;2.40;;;6.60;99.90;;;;;;5093793;28;20440;-49
2022/11/19 10:08:17;;;;;;;2.13;1.93;;;6.70;99.90;;;;;;5093696;28;20467;-47
2022/11/19 10:10:51;;;;;;;2.77;1.80;;;6.70;99.90;;;;;;5093882;28;20857;-47
2022/11/19 10:13:35;;;;;;;1.87;1.77;;;6.80;99.90;;;;;;5093156;28;20473;-49
2022/11/19 10:16:27;;;;;;;1.80;1.23;;;7.00;99.90;;;;;;5093744;28;20472;-47
2022/11/19 10:19:07;;;;;;;19.07;1.93;;;7.00;99.90;;;;;;5092732;28;20446;-47
2022/11/19 10:21:44;;;;;;;1.77;1.00;;;7.00;99.90;;;;;;5093555;28;20440;-49
2022/11/19 10:24:16;;;;;;;2.17;1.30;;;7.10;99.90;;;;;;5091623;28;20440;-47
2022/11/19 10:26:49;;;;;;;2.27;1.30;;;7.10;99.90;;;;;;5092003;28;20517;-46
2022/11/19 10:29:18;;;;;;;11.73;8.90;;;7.10;99.90;;;;;;5094749;28;20440;-47
2022/11/19 10:31:51;;;;;;;5.87;4.07;;;7.10;99.90;;;;;;5095867;28;20471;-47
2022/11/19 10:34:23;;;;;;;4.50;2.00;;;7.10;99.90;;;;;;5096044;28;20939;-47
2022/11/19 10:36:57;;;;;;;1.47;1.30;;;7.10;99.90;;;;;;5096520;28;20856;-46
2022/11/19 10:39:31;;;;;;;1.80;1.53;;;7.10;99.90;;;;;;5095375;28;20471;-47
2022/11/19 10:42:06;;;;;;;1.90;1.60;;;7.10;99.90;;;;;;5095649;28;20439;-47
2022/11/19 10:44:42;;;;;;;2.30;1.47;;;7.20;99.90;;;;;;5095103;28;20870;-46
2022/11/19 10:47:16;;;;;;;1.67;1.37;;;7.20;99.90;;;;;;5094845;28;20463;-46
2022/11/19 10:49:44;;;;;;;1.80;1.50;;;7.30;99.90;;;;;;5095035;28;20532;-43
2022/11/19 10:52:24;;;;;;;1.50;1.40;;;7.30;99.90;;;;;;5094808;28;20444;-46
2022/11/19 10:54:53;;;;;;;1.63;1.40;;;7.40;99.90;;;;;;5096919;28;20439;-46
2022/11/19 10:57:22;;;;;;;1.60;1.40;;;7.40;99.90;;;;;;5095821;28;20479;-47
2022/11/19 10:59:52;;;;;;;1.70;1.13;;;7.40;99.90;;;;;;5096191;28;20486;-48
2022/11/19 11:02:30;;;;;;;2.07;1.20;;;7.40;99.90;;;;;;5096869;28;20534;-47
2022/11/19 11:05:04;;;;;;;1.83;1.37;;;7.50;99.90;;;;;;5095484;28;20519;-47
2022/11/19 11:07:49;;;;;;;1.97;1.60;;;7.50;99.90;;;;;;5095964;28;20960;-47
2022/11/19 11:10:43;;;;;;;6.13;2.10;;;7.50;99.90;;;;;;5096757;28;20474;-47
2022/11/19 11:16:09;;;;;;;4.50;3.50;;;7.70;99.90;;;;;;5096294;28;20841;-47
2022/11/19 11:18:39;;;;;;;4.17;2.20;;;7.80;99.90;;;;;;5094444;28;20443;-45
2022/11/19 11:21:17;;;;;;;2.60;1.80;;;7.80;99.90;;;;;;5095463;28;20497;-45
2022/11/19 11:23:51;;;;;;;1.80;1.50;;;7.80;99.90;;;;;;5097822;28;20443;-47
2022/11/19 11:26:21;;;;;;;1.30;1.10;;;7.90;99.90;;;;;;5095457;28;20807;-47
2022/11/19 11:28:57;;;;;;;1.73;1.13;;;7.90;99.90;;;;;;5096066;28;20527;-50
2022/11/19 11:31:36;;;;;;;2.40;1.60;;;8.00;99.90;;;;;;5094445;28;20534;-49
2022/11/19 11:34:06;;;;;;;21.50;3.40;;;7.90;99.90;;;;;;5094454;28;20464;-48
2022/11/19 11:36:36;;;;;;;17.40;3.97;;;7.90;99.90;;;;;;5095777;28;20483;-49
2022/11/19 11:39:04;;;;;;;8.57;3.37;;;7.90;99.90;;;;;;5093249;28;20440;-46
2022/11/19 11:41:41;;;;;;;14.00;3.07;;;7.90;99.90;;;;;;5092777;28;20446;-47
2022/11/19 11:44:18;;;;;;;6.80;2.77;;;7.90;99.90;;;;;;5093294;28;20526;-46
2022/11/19 11:46:46;;;;;;;6.00;4.00;;;7.90;99.90;;;;;;5093687;28;20569;-46
2022/11/19 11:49:25;;;;;;;15.27;4.87;;;7.80;99.90;;;;;;5093514;28;20996;-49
2022/11/19 11:52:07;;;;;;;2.90;1.87;;;7.90;99.90;;;;;;5093541;28;20475;-46
2022/11/19 11:54:34;;;;;;;10.90;3.83;;;7.50;99.90;;;;;;5093656;28;20475;-48
2022/11/19 11:57:18;;;;;;;17.00;6.67;;;7.60;99.90;;;;;;5093647;28;20559;-45
2022/11/19 11:59:45;;;;;;;36.37;17.37;;;7.70;99.90;;;;;;5093262;28;20447;-47
2022/11/19 12:02:21;;;;;;;42.43;18.73;;;7.70;99.90;;;;;;5093627;28;20443;-46
2022/11/19 12:04:51;;;;;;;19.17;9.77;;;7.80;99.90;;;;;;5093503;28;20436;-47
2022/11/19 12:07:37;;;;;;;9.57;4.50;;;7.90;99.90;;;;;;5093038;28;20460;-47
2022/11/19 12:10:14;;;;;;;6.10;3.00;;;8.00;99.90;;;;;;5093599;28;20518;-47
2022/11/19 12:12:46;;;;;;;16.53;3.30;;;8.10;99.90;;;;;;5093246;28;20530;-47
2022/11/19 12:15:19;;;;;;;4.83;2.73;;;8.20;99.90;;;;;;5093012;28;20439;-47
2022/11/19 12:17:52;;;;;;;4.40;2.30;;;8.20;99.90;;;;;;5093051;28;20475;-46
2022/11/19 12:20:33;;;;;;;12.07;3.57;;;8.20;99.90;;;;;;5093072;28;20443;-46
2022/11/19 12:23:18;;;;;;;4.90;2.57;;;8.30;99.90;;;;;;5092900;28;20444;-46
2022/11/19 12:25:59;;;;;;;18.17;4.20;;;8.30;99.90;;;;;;5093097;28;20450;-47
2022/11/19 12:28:39;;;;;;;2.70;1.93;;;8.30;99.90;;;;;;5092422;28;21039;-47
2022/11/19 12:31:19;;;;;;;2.23;2.03;;;8.30;99.90;;;;;;5092858;28;20529;-46
2022/11/19 12:34:07;;;;;;;2.17;1.87;;;8.10;99.90;;;;;;5092540;28;20446;-48
2022/11/19 12:36:46;;;;;;;2.57;2.03;;;7.90;99.90;;;;;;5092541;28;20562;-49
2022/11/19 12:39:26;;;;;;;2.30;2.00;;;8.20;99.90;;;;;;5092772;28;20440;-46
2022/11/19 12:42:17;;;;;;;3.30;2.17;;;8.20;99.90;;;;;;5092016;28;20534;-47
2022/11/19 12:44:54;;;;;;;3.43;2.50;;;8.40;99.90;;;;;;5090819;28;20538;-47
2022/11/19 12:47:34;;;;;;;2.53;2.20;;;8.60;99.90;;;;;;5091234;28;20452;-47
2022/11/19 12:50:13;;;;;;;4.20;2.37;;;8.30;99.90;;;;;;5091242;28;20858;-47
2022/11/19 12:53:06;;;;;;;3.00;2.10;;;8.10;99.90;;;;;;5090380;28;20526;-46
2022/11/19 12:55:41;;;;;;;68.37;8.87;;;8.10;99.90;;;;;;5091135;28;20536;-48
2022/11/19 12:58:20;;;;;;;104.90;37.90;;;8.40;99.90;;;;;;5092231;28;20455;-47
2022/11/19 13:00:51;;;;;;;38.50;17.40;;;8.00;99.90;;;;;;5092431;28;20947;-47
2022/11/19 13:03:22;;;;;;;34.87;15.53;;;7.40;99.90;;;;;;5092528;28;20446;-47
2022/11/19 13:05:54;;;;;;;40.93;17.10;;;7.50;99.90;;;;;;5092696;28;20518;-47
2022/11/19 13:08:27;;;;;;;19.23;9.50;;;7.60;99.90;;;;;;5092133;28;20490;-48
2022/11/19 13:11:04;;;;;;;6.80;4.70;;;7.60;99.90;;;;;;5092175;28;20990;-47
2022/11/19 13:13:34;;;;;;;4.10;3.70;;;7.60;99.90;;;;;;5091797;28;20478;-48
2022/11/19 13:16:07;;;;;;;5.87;3.87;;;7.70;99.90;;;;;;5091578;28;20932;-48
2022/11/19 13:18:38;;;;;;;4.20;3.60;;;7.90;99.90;;;;;;5092284;28;20439;-44
2022/11/19 13:21:08;;;;;;;3.63;3.07;;;8.00;99.90;;;;;;5092213;28;20446;-46
2022/11/19 13:23:41;;;;;;;4.40;3.33;;;8.10;99.90;;;;;;5091572;28;20523;-48
2022/11/19 13:26:12;;;;;;;4.23;3.23;;;8.20;99.90;;;;;;5091818;28;20432;-48
2022/11/19 13:28:43;;;;;;;4.90;3.60;;;8.50;99.90;;;;;;5091736;28;20442;-48